Погода Бокачевкана 2 недели

Ростовская область, Россия

13 - 26 июля
  • 13июля
    Сегодня
    +16°
    +31°
    Ясно и безоблачно
    ВремяПогодаТемператураВлажностьДавлениеВетер, м/сВероятность осадков
    00:00Ясно и безоблачно+20°C36 %755 мм2.6 м/с2 %
    03:00Ясно и безоблачно+17°C42 %755 мм2.9 м/с2 %
    06:00Ясно и безоблачно+19°C43 %755 мм3.3 м/с2 %
    09:00Ясно и безоблачно+26°C28 %755 мм4.2 м/с2 %
    12:00Ясно и безоблачно+29°C20 %755 мм4.9 м/с2 %
    15:00Ясно и безоблачно+31°C18 %753 мм5.0 м/с2 %
    18:00Ясно и безоблачно+30°C22 %753 мм5.5 м/с2 %
    21:00Ясно и безоблачно+24°C31 %754 мм3.0 м/с2 %
  • 14июля
    Воскресенье
    +18°
    +33°
    Практически безоблачно
    ВремяПогодаТемператураВлажностьДавлениеВетер, м/сВероятность осадков
    00:00Ясно и безоблачно+20°C41 %754 мм2.4 м/с2 %
    03:00Ясно и безоблачно+17°C48 %754 мм2.8 м/с2 %
    06:00Ясно и безоблачно+19°C48 %754 мм2.9 м/с2 %
    09:00Ясно и безоблачно+26°C26 %754 мм3.4 м/с2 %
    12:00Ясно и безоблачно+30°C17 %754 мм3.9 м/с2 %
    15:00Практически безоблачно+32°C15 %753 мм4.1 м/с2 %
    18:00Ясно и безоблачно+31°C18 %753 мм4.1 м/с2 %
    21:00Практически безоблачно+25°C24 %754 мм2.7 м/с2 %
  • 15июля
    Понедельник
    +22°
    +37°
    Небольшая облачность
    ВремяПогодаТемператураВлажностьДавлениеВетер, м/сВероятность осадков
    00:00Ясно и безоблачно+22°C29 %754 мм2.9 м/с2 %
    03:00Ясно и безоблачно+19°C39 %753 мм2.0 м/с2 %
    06:00Ясно и безоблачно+21°C38 %754 мм2.4 м/с2 %
    09:00Ясно и безоблачно+30°C23 %754 мм1.9 м/с2 %
    12:00Ясно и безоблачно+34°C23 %754 мм3.3 м/с2 %
    15:00Небольшая облачность+36°C23 %752 мм3.9 м/с2 %
    18:00Практически безоблачно+35°C25 %752 мм4.1 м/с7 %
    21:00Ясно и безоблачно+30°C35 %752 мм2.7 м/с2 %
  • 16июля
    Вторник
    +22°
    +38°
    Практически безоблачно
    ВремяПогодаТемператураВлажностьДавлениеВетер, м/сВероятность осадков
    00:00Ясно и безоблачно+25°C47 %753 мм1.8 м/с2 %
    03:00Ясно и безоблачно+23°C57 %753 мм1.6 м/с2 %
    06:00Ясно и безоблачно+25°C59 %753 мм2.5 м/с2 %
    09:00Ясно и безоблачно+32°C40 %753 мм2.7 м/с2 %
    12:00Ясно и безоблачно+35°C28 %753 мм2.4 м/с3 %
    15:00Практически безоблачно+37°C24 %752 мм1.1 м/с2 %
    18:00Небольшая облачность+36°C23 %752 мм1.5 м/с5 %
    21:00Облачно с прояснениями+30°C31 %753 мм1.8 м/с2 %
  • 17июля
    Среда
    +21°
    +38°
    Небольшая облачность
    ВремяПогодаТемператураВлажностьДавлениеВетер, м/сВероятность осадков
    00:00Ясно и безоблачно+27°C39 %753 мм2.1 м/с2 %
    03:00Ясно и безоблачно+22°C47 %754 мм2.6 м/с2 %
    06:00Ясно и безоблачно+24°C44 %754 мм2.8 м/с2 %
    09:00Практически безоблачно+32°C26 %755 мм2.3 м/с2 %
    12:00Практически безоблачно+36°C21 %754 мм1.9 м/с2 %
    15:00Небольшая облачность+37°C19 %753 мм1.3 м/с2 %
    18:00Небольшая облачность+37°C19 %753 мм3.3 м/с6 %
    21:00Ясно и безоблачно+30°C28 %753 мм2.2 м/с2 %
Мы используем cookies
Соглашаюсь